Time;durP1;ratioP1;P1;durP2;ratioP2;P2;SDS_P1;SDS_P2;PMS_P1;PMS_P2;Temp;Humidity;BMP_temperature;BMP_pressure;BME280_temperature;BME280_humidity;BME280_pressure;Samples;Min_cycle;Max_cycle;Signal;HPM_P1;HPM_P2
2022/07/19 00:02:10;;;;;;;3.42;2.03;;;;;;;13.08;nan;99250.97;5048629;28;20080;-64
2022/07/19 00:04:35;;;;;;;2.92;1.90;;;;;;;13.05;nan;99251.22;5047723;28;20047;-64
2022/07/19 00:07:01;;;;;;;2.70;2.03;;;;;;;13.03;nan;99249.66;5049890;28;20891;-65
2022/07/19 00:09:26;;;;;;;5.20;2.03;;;;;;;13.02;nan;99248.81;5065935;28;20419;-65
2022/07/19 00:11:51;;;;;;;2.00;1.67;;;;;;;13.02;nan;99247.97;5065568;28;20039;-65
2022/07/19 00:14:16;;;;;;;3.60;2.00;;;;;;;13.00;nan;99242.75;5065988;28;20043;-65
2022/07/19 00:16:41;;;;;;;5.93;2.28;;;;;;;12.98;nan;99247.38;5049506;28;20042;-64
2022/07/19 00:19:06;;;;;;;1.77;1.67;;;;;;;12.96;nan;99256.56;5065646;28;20035;-66
2022/07/19 00:21:31;;;;;;;3.80;2.08;;;;;;;12.92;nan;99247.09;5048371;28;20043;-65
2022/07/19 00:23:56;;;;;;;3.08;1.55;;;;;;;12.92;nan;99245.25;5064461;28;20040;-64
2022/07/19 00:26:20;;;;;;;2.20;2.00;;;;;;;12.91;nan;99250.75;5065480;28;20036;-64
2022/07/19 00:28:45;;;;;;;5.05;2.10;;;;;;;12.88;nan;99242.97;5067210;28;20039;-63
2022/07/19 00:31:10;;;;;;;2.70;1.80;;;;;;;12.88;nan;99248.31;5048362;28;20050;-64
2022/07/19 00:33:35;;;;;;;3.30;2.28;;;;;;;12.86;nan;99250.31;5030567;28;20086;-64
2022/07/19 00:36:00;;;;;;;3.95;2.13;;;;;;;12.84;nan;99246.91;5057448;28;20486;-65
2022/07/19 00:38:25;;;;;;;2.00;1.70;;;;;;;12.82;nan;99251.53;5065401;28;20044;-64
2022/07/19 00:40:50;;;;;;;1.63;1.45;;;;;;;12.79;nan;99255.31;5066424;28;20145;-63
2022/07/19 00:43:14;;;;;;;1.92;1.75;;;;;;;12.77;nan;99253.75;5066439;28;20086;-64
2022/07/19 00:45:39;;;;;;;2.55;2.20;;;;;;;12.73;nan;99251.38;5046827;28;20032;-64
2022/07/19 00:48:05;;;;;;;2.60;1.27;;;;;;;12.71;nan;99250.66;5048388;28;20047;-64
2022/07/19 00:50:30;;;;;;;2.97;1.90;;;;;;;12.70;nan;99253.44;5039013;28;20488;-65
2022/07/19 00:53:00;;;;;;;1.95;1.67;;;;;;;12.70;nan;99253.44;5048937;28;20498;-65
2022/07/19 00:55:27;;;;;;;4.30;2.28;;;;;;;12.68;nan;99247.38;5062619;28;20040;-65
2022/07/19 00:57:54;;;;;;;5.68;2.28;;;;;;;12.68;nan;99258.94;5048135;28;20070;-65
2022/07/19 01:00:19;;;;;;;2.63;1.60;;;;;;;12.69;nan;99251.75;5066782;28;20035;-65
2022/07/19 01:02:44;;;;;;;3.70;1.83;;;;;;;12.70;nan;99251.63;5065288;28;20066;-65
2022/07/19 01:05:11;;;;;;;3.55;2.30;;;;;;;12.72;nan;99252.34;5065890;28;20039;-65
2022/07/19 01:07:37;;;;;;;5.18;2.85;;;;;;;12.75;nan;99253.06;5066297;28;20081;-65
2022/07/19 01:10:03;;;;;;;2.67;1.90;;;;;;;12.78;nan;99250.09;5074451;28;20053;-65
2022/07/19 01:12:29;;;;;;;4.47;2.05;;;;;;;12.81;nan;99252.53;5076327;28;20043;-66
2022/07/19 01:14:58;;;;;;;5.38;1.88;;;;;;;12.90;nan;99257.06;5077120;28;20047;-65
2022/07/19 01:17:23;;;;;;;2.05;1.85;;;;;;;12.93;nan;99262.16;5058474;28;20039;-66
2022/07/19 01:19:48;;;;;;;2.72;1.75;;;;;;;12.98;nan;99254.59;5076829;28;20056;-66
2022/07/19 01:22:13;;;;;;;5.22;1.77;;;;;;;13.02;nan;99259.53;5058417;28;20047;-66
2022/07/19 01:24:37;;;;;;;4.10;2.17;;;;;;;13.07;nan;99243.06;5058434;28;20044;-65
2022/07/19 01:27:02;;;;;;;2.20;1.70;;;;;;;13.13;nan;99247.88;5056827;28;20517;-65
2022/07/19 01:29:27;;;;;;;1.60;1.50;;;;;;;13.16;nan;99255.66;5056233;28;20040;-65
2022/07/19 01:31:52;;;;;;;1.73;1.52;;;;;;;13.18;nan;99251.03;5056673;28;20512;-64
2022/07/19 01:34:17;;;;;;;3.17;1.85;;;;;;;13.21;nan;99240.03;5037610;28;20093;-65
2022/07/19 01:36:41;;;;;;;3.33;1.73;;;;;;;13.24;nan;99249.63;5055932;28;20052;-66
2022/07/19 01:39:06;;;;;;;2.03;1.77;;;;;;;13.23;nan;99243.44;5056272;28;20043;-65
2022/07/19 01:41:31;;;;;;;7.15;2.28;;;;;;;13.23;nan;99261.31;5038076;28;20116;-71
2022/07/19 01:43:56;;;;;;;2.05;1.73;;;;;;;13.22;nan;99256.94;5038227;28;20517;-71
2022/07/19 01:46:20;;;;;;;3.45;2.38;;;;;;;13.22;nan;99256.94;5037796;28;20047;-68
2022/07/19 01:48:45;;;;;;;5.75;2.42;;;;;;;13.24;nan;99260.34;5056243;28;20101;-70
2022/07/19 01:51:10;;;;;;;1.95;1.80;;;;;;;13.29;nan;99263.47;5056369;28;20124;-65
2022/07/19 01:53:34;;;;;;;6.50;2.58;;;;;;;13.39;nan;99259.00;5056195;28;20066;-64
2022/07/19 01:55:59;;;;;;;4.18;2.08;;;;;;;13.49;nan;99264.38;5053615;28;20384;-65
2022/07/19 01:58:24;;;;;;;3.10;1.40;;;;;;;13.58;nan;99266.22;5040474;28;20123;-65
2022/07/19 02:00:49;;;;;;;1.98;1.70;;;;;;;13.69;nan;99268.78;5060763;28;20047;-65
2022/07/19 02:03:14;;;;;;;1.70;1.60;;;;;;;13.78;nan;99260.75;5047209;28;20046;-66
2022/07/19 02:05:38;;;;;;;2.30;1.42;;;;;;;13.89;nan;99262.44;5043882;28;20052;-67
2022/07/19 02:08:03;;;;;;;1.20;1.17;;;;;;;13.96;nan;99260.06;5035664;28;20051;-69
2022/07/19 02:10:29;;;;;;;4.38;1.90;;;;;;;14.02;nan;99271.06;5037916;28;20371;-68
2022/07/19 02:12:54;;;;;;;2.38;1.77;;;;;;;14.06;nan;99271.63;5035746;28;20036;-70
2022/07/19 02:15:19;;;;;;;3.47;1.92;;;;;;;14.08;nan;99270.53;5017488;28;20046;-71
2022/07/19 02:17:44;;;;;;;4.60;1.67;;;;;;;14.12;nan;99274.59;5035788;28;20041;-64
2022/07/19 02:20:09;;;;;;;1.85;1.45;;;;;;;14.16;nan;99276.00;5049576;28;20064;-65
2022/07/19 02:22:34;;;;;;;1.98;1.60;;;;;;;14.21;nan;99275.59;5024869;28;20087;-65
2022/07/19 02:24:59;;;;;;;2.92;1.50;;;;;;;14.24;nan;99277.13;5035535;28;20041;-65
2022/07/19 02:27:24;;;;;;;3.55;2.00;;;;;;;14.27;nan;99274.16;5017684;28;20044;-64
2022/07/19 02:29:49;;;;;;;2.40;1.33;;;;;;;14.27;nan;99280.38;5035843;28;20045;-65
2022/07/19 02:32:14;;;;;;;1.60;1.50;;;;;;;14.30;nan;99279.25;5035704;28;20452;-65
2022/07/19 02:34:38;;;;;;;2.45;1.80;;;;;;;14.32;nan;99283.50;5035677;28;20406;-65
2022/07/19 02:37:03;;;;;;;4.15;1.70;;;;;;;14.35;nan;99279.66;5017139;28;20410;-65
2022/07/19 02:39:28;;;;;;;2.30;1.85;;;;;;;14.39;nan;99287.31;5016723;28;20033;-66
2022/07/19 02:41:53;;;;;;;1.83;1.42;;;;;;;14.42;nan;99278.16;5017019;28;20491;-64
2022/07/19 02:44:18;;;;;;;2.13;1.63;;;;;;;14.47;nan;99273.19;5035321;28;20525;-67
2022/07/19 02:46:42;;;;;;;2.95;1.50;;;;;;;14.50;nan;99279.13;5017468;28;20048;-65
2022/07/19 02:49:07;;;;;;;2.13;1.67;;;;;;;14.53;nan;99286.06;5035165;28;20406;-69
2022/07/19 02:51:32;;;;;;;1.40;1.13;;;;;;;14.56;nan;99283.06;5035272;28;20044;-64
2022/07/19 02:53:57;;;;;;;3.80;1.58;;;;;;;14.57;nan;99282.06;5017469;28;20140;-65
2022/07/19 02:56:21;;;;;;;3.10;1.77;;;;;;;14.55;nan;99281.41;5017071;28;20106;-65
2022/07/19 02:58:47;;;;;;;5.53;2.13;;;;;;;14.49;nan;99276.59;5035614;28;20087;-66
2022/07/19 03:01:11;;;;;;;1.77;1.40;;;;;;;14.42;nan;99284.38;5035068;28;20056;-69
2022/07/19 03:03:50;;;;;;;1.33;1.27;;;;;;;14.34;nan;99283.31;5035038;28;20044;-68
2022/07/19 03:06:18;;;;;;;3.88;2.63;;;;;;;14.24;nan;99279.81;5035242;28;20051;-69
2022/07/19 03:08:43;;;;;;;2.97;1.65;;;;;;;14.20;nan;99281.09;5035343;28;20032;-67
2022/07/19 03:11:07;;;;;;;1.98;1.25;;;;;;;14.24;nan;99279.81;5027946;28;20043;-67
2022/07/19 03:13:32;;;;;;;2.15;1.35;;;;;;;14.40;nan;99286.34;5045886;28;20046;-69
2022/07/19 03:15:57;;;;;;;1.85;1.60;;;;;;;14.72;nan;99277.09;5046698;28;20051;-67
2022/07/19 03:18:22;;;;;;;2.88;1.75;;;;;;;15.13;nan;99289.25;5044835;28;20039;-67
2022/07/19 03:20:46;;;;;;;4.35;1.50;;;;;;;15.53;nan;99280.91;5049917;28;20048;-69
2022/07/19 03:23:11;;;;;;;2.95;1.90;;;;;;;15.95;nan;99287.44;5074722;28;20417;-68
2022/07/19 03:25:36;;;;;;;2.15;1.45;;;;;;;16.32;nan;99289.16;5074804;28;20044;-66
2022/07/19 03:28:01;;;;;;;3.13;1.70;;;;;;;16.62;nan;99290.59;5056979;28;20035;-66
2022/07/19 03:30:26;;;;;;;1.60;1.40;;;;;;;16.72;nan;99294.03;5074630;28;20509;-68
2022/07/19 03:32:51;;;;;;;4.38;2.03;;;;;;;16.68;nan;99295.38;5039603;28;20043;-70
2022/07/19 03:35:15;;;;;;;2.10;1.20;;;;;;;16.65;nan;99299.22;5079527;28;20498;-69
2022/07/19 03:37:40;;;;;;;1.55;1.38;;;;;;;16.59;nan;99294.41;5081320;28;20088;-69
2022/07/19 03:40:06;;;;;;;1.83;1.65;;;;;;;16.60;nan;99296.09;5063041;28;20129;-69
2022/07/19 03:42:30;;;;;;;1.85;1.65;;;;;;;16.62;nan;99302.22;5081374;28;20051;-68
2022/07/19 03:44:55;;;;;;;3.78;1.85;;;;;;;16.60;nan;99297.94;5063085;28;20043;-68
2022/07/19 03:47:20;;;;;;;2.78;1.50;;;;;;;16.59;nan;99301.66;5029564;28;20037;-67
2022/07/19 03:49:45;;;;;;;2.22;1.40;;;;;;;16.60;nan;99306.88;5081463;28;20057;-68
2022/07/19 03:52:09;;;;;;;2.42;1.55;;;;;;;16.63;nan;99300.38;5063046;28;20559;-68
2022/07/19 03:54:34;;;;;;;3.78;1.67;;;;;;;16.68;nan;99304.28;5081587;28;20121;-68
2022/07/19 03:56:59;;;;;;;4.20;1.48;;;;;;;16.74;nan;99308.19;5081607;28;20510;-69
2022/07/19 03:59:24;;;;;;;2.40;1.40;;;;;;;16.79;nan;99316.66;5081987;28;20035;-68
2022/07/19 04:01:50;;;;;;;2.47;1.80;;;;;;;16.86;nan;99315.00;5063697;28;20039;-68
2022/07/19 04:04:14;;;;;;;2.85;1.42;;;;;;;16.95;nan;99308.66;5081427;28;20044;-68
2022/07/19 04:06:39;;;;;;;2.33;1.58;;;;;;;17.08;nan;99299.31;5081049;28;20053;-69
2022/07/19 04:09:04;;;;;;;2.78;1.75;;;;;;;17.17;nan;99303.75;5081106;28;20080;-69
2022/07/19 04:11:29;;;;;;;2.60;1.38;;;;;;;17.19;nan;99305.28;5062924;28;20501;-68
2022/07/19 04:13:54;;;;;;;1.60;1.50;;;;;;;17.25;nan;99304.66;5062688;28;20501;-69
2022/07/19 04:16:18;;;;;;;3.55;1.48;;;;;;;17.31;nan;99305.84;5081061;28;20047;-68
2022/07/19 04:18:43;;;;;;;1.10;1.00;;;;;;;17.38;nan;99301.53;5081144;28;20043;-69
2022/07/19 04:21:08;;;;;;;2.42;1.45;;;;;;;17.53;nan;99304.44;5081105;28;20051;-68
2022/07/19 04:23:33;;;;;;;3.38;1.65;;;;;;;17.61;nan;99305.31;5062981;27;20043;-67
2022/07/19 04:25:58;;;;;;;2.58;1.77;;;;;;;17.74;nan;99305.72;5081107;28;20060;-68
2022/07/19 04:28:23;;;;;;;2.55;1.65;;;;;;;17.92;nan;99299.41;5080717;28;20047;-69
2022/07/19 04:30:48;;;;;;;1.83;1.70;;;;;;;18.05;nan;99295.22;5081038;28;20392;-68
2022/07/19 04:33:15;;;;;;;1.42;1.30;;;;;;;18.25;nan;99301.16;5062633;28;20509;-68
2022/07/19 04:35:40;;;;;;;3.13;1.70;;;;;;;18.44;nan;99300.81;5080816;28;20152;-67
2022/07/19 04:38:05;;;;;;;2.17;1.67;;;;;;;18.64;nan;99295.09;5080797;28;20078;-68
2022/07/19 04:40:29;;;;;;;6.25;2.03;;;;;;;18.85;nan;99296.25;5081023;28;20490;-69
2022/07/19 04:42:54;;;;;;;7.10;1.73;;;;;;;19.04;nan;99303.19;5080788;28;20052;-69
2022/07/19 04:45:19;;;;;;;3.25;1.33;;;;;;;19.29;nan;99306.66;5061749;28;20071;-68
2022/07/19 04:47:44;;;;;;;1.80;1.52;;;;;;;19.59;nan;99294.25;5076865;28;20390;-69
2022/07/19 04:50:09;;;;;;;2.67;1.23;;;;;;;19.97;nan;99294.41;5059700;28;20528;-70
2022/07/19 04:52:34;;;;;;;1.25;1.15;;;;;;;20.36;nan;99294.34;5042299;28;20066;-69
2022/07/19 04:54:58;;;;;;;1.38;1.27;;;;;;;20.65;nan;99294.47;5077391;28;20039;-69
2022/07/19 04:57:23;;;;;;;2.17;1.98;;;;;;;20.78;nan;99288.38;5077543;28;20132;-68
2022/07/19 04:59:48;;;;;;;2.22;1.70;;;;;;;20.86;nan;99297.31;5077531;28;20441;-68
2022/07/19 05:02:13;;;;;;;2.60;1.63;;;;;;;21.12;nan;99286.00;5077701;28;20394;-68
2022/07/19 05:04:38;;;;;;;1.83;1.45;;;;;;;21.45;nan;99291.09;5077211;28;20067;-69
2022/07/19 05:07:03;;;;;;;4.55;1.40;;;;;;;21.85;nan;99285.19;5042176;28;20047;-70
2022/07/19 05:09:29;;;;;;;2.67;1.50;;;;;;;22.25;nan;99289.19;5058766;28;20043;-68
2022/07/19 05:11:54;;;;;;;4.13;2.40;;;;;;;22.57;nan;99287.88;5059025;28;20414;-68
2022/07/19 05:14:20;;;;;;;1.30;1.05;;;;;;;22.85;nan;99300.66;5058936;28;20039;-69
2022/07/19 05:16:46;;;;;;;2.03;1.65;;;;;;;22.76;nan;99291.81;5077260;28;20036;-68
2022/07/19 05:19:11;;;;;;;1.80;1.52;;;;;;;22.73;nan;99292.16;5077238;28;20448;-68
2022/07/19 05:21:35;;;;;;;2.20;1.90;;;;;;;22.87;nan;99294.00;5076447;28;20471;-68
2022/07/19 05:24:00;;;;;;;1.70;1.40;;;;;;;23.22;nan;99286.72;5054666;28;20044;-68
2022/07/19 05:26:25;;;;;;;4.05;1.45;;;;;;;23.48;nan;99283.31;5036090;28;20503;-68
2022/07/19 05:28:49;;;;;;;2.45;1.77;;;;;;;23.60;nan;99286.31;5017613;28;20578;-68
2022/07/19 05:31:14;;;;;;;2.53;1.30;;;;;;;23.68;nan;99275.28;5018029;28;20484;-66
2022/07/19 05:33:39;;;;;;;3.95;3.30;;;;;;;23.70;nan;99290.34;5018520;28;20064;-67
2022/07/19 05:36:04;;;;;;;2.05;1.80;;;;;;;23.71;nan;99285.75;5018059;28;20113;-72
2022/07/19 05:38:34;;;;;;;4.32;2.13;;;;;;;23.70;nan;99290.34;5019036;28;20040;-71
2022/07/19 05:40:59;;;;;;;2.92;2.08;;;;;;;23.79;nan;99294.59;5019391;28;20417;-71
2022/07/19 05:43:24;;;;;;;4.53;3.03;;;;;;;23.51;nan;99297.38;5003966;28;20044;-71
2022/07/19 05:45:49;;;;;;;3.22;2.22;;;;;;;23.29;nan;99298.47;5037254;28;20044;-71
2022/07/19 05:48:14;;;;;;;2.03;1.73;;;;;;;23.12;nan;99299.84;5035679;28;20040;-72
2022/07/19 05:50:38;;;;;;;3.90;1.50;;;;;;;22.72;nan;99288.59;5001315;28;20473;-68
2022/07/19 05:53:03;;;;;;;1.50;1.40;;;;;;;22.33;nan;99286.38;5037523;28;20040;-69
2022/07/19 05:55:28;;;;;;;2.00;1.50;;;;;;;22.03;nan;99280.19;5056006;28;20463;-69
2022/07/19 05:57:53;;;;;;;1.63;1.48;;;;;;;22.52;nan;99290.31;5055178;28;20386;-70
2022/07/19 06:00:17;;;;;;;2.25;1.80;;;;;;;23.27;nan;99295.09;5055930;28;20048;-69
2022/07/19 06:02:42;;;;;;;3.88;1.65;;;;;;;24.37;nan;99281.41;5055688;28;20083;-69
2022/07/19 06:05:08;;;;;;;3.78;1.58;;;;;;;25.47;nan;99294.38;5056198;28;20040;-69
2022/07/19 06:07:33;;;;;;;3.65;1.80;;;;;;;26.61;nan;99288.22;5056461;28;20503;-69
2022/07/19 06:09:57;;;;;;;4.35;1.63;;;;;;;27.09;nan;99288.44;5054844;28;20441;-70
2022/07/19 06:12:22;;;;;;;4.53;2.55;;;;;;;27.23;nan;99286.44;5037509;28;20055;-69
2022/07/19 06:14:47;;;;;;;2.47;2.25;;;;;;;27.25;nan;99281.56;5037186;28;20097;-72
2022/07/19 06:17:12;;;;;;;4.30;1.77;;;;;;;27.17;nan;99279.97;5037376;28;20036;-71
2022/07/19 06:19:37;;;;;;;1.48;1.38;;;;;;;26.48;nan;99291.03;5055356;28;20054;-72
2022/07/19 06:22:01;;;;;;;3.88;2.65;;;;;;;25.75;nan;99285.06;5020544;28;20115;-70
2022/07/19 06:24:26;;;;;;;4.15;2.35;;;;;;;26.46;nan;99283.06;5037061;28;20135;-71
2022/07/19 06:26:51;;;;;;;2.72;1.65;;;;;;;27.39;nan;99286.69;5055232;28;20448;-70
2022/07/19 06:29:15;;;;;;;3.17;1.90;;;;;;;28.74;nan;99290.00;5037248;28;20863;-70
2022/07/19 06:31:40;;;;;;;4.22;3.03;;;;;;;29.42;nan;99289.50;5055303;28;20062;-71
2022/07/19 06:34:05;;;;;;;3.50;2.33;;;;;;;29.89;nan;99295.75;5037129;28;20421;-71
2022/07/19 06:36:29;;;;;;;3.08;2.08;;;;;;;30.41;nan;99292.94;5055656;28;20506;-70
2022/07/19 06:38:54;;;;;;;2.28;2.05;;;;;;;30.73;nan;99292.44;5055000;28;20044;-71
2022/07/19 06:41:19;;;;;;;5.22;2.58;;;;;;;30.72;nan;99296.28;5054935;28;20062;-69
2022/07/19 06:43:44;;;;;;;3.58;2.10;;;;;;;30.62;nan;99303.28;5054998;28;20063;-68
2022/07/19 06:46:09;;;;;;;4.47;2.72;;;;;;;30.65;nan;99297.28;5055143;28;20044;-68
2022/07/19 06:48:35;;;;;;;4.75;2.95;;;;;;;31.31;nan;99364.50;5054750;28;20048;-69
2022/07/19 06:51:01;;;;;;;5.05;4.38;;;;;;;32.05;nan;99375.28;5036306;28;20130;-70
2022/07/19 06:53:26;;;;;;;5.18;2.50;;;;;;;32.35;nan;99287.38;5055112;28;20048;-69
2022/07/19 06:55:50;;;;;;;3.35;1.90;;;;;;;31.69;nan;99289.31;5036573;28;20096;-68
2022/07/19 06:58:15;;;;;;;4.60;2.10;;;;;;;30.32;nan;99292.53;5036512;28;20043;-69
2022/07/19 07:00:40;;;;;;;4.07;1.92;;;;;;;29.02;nan;99297.56;5019659;28;20123;-69
2022/07/19 07:03:05;;;;;;;22.60;11.50;;;;;;;29.70;nan;99302.47;5037256;28;20137;-71
2022/07/19 07:05:31;;;;;;;3.03;2.83;;;;;;;31.21;nan;99289.13;5055458;28;20039;-69
2022/07/19 07:07:56;;;;;;;15.10;5.97;;;;;;;32.45;nan;99298.53;5054199;28;20044;-69
2022/07/19 07:10:21;;;;;;;8.57;3.35;;;;;;;33.69;nan;99285.44;5053819;28;20055;-69
2022/07/19 07:12:46;;;;;;;12.80;6.00;;;;;;;35.00;nan;99295.25;5056679;28;20134;-70
2022/07/19 07:15:10;;;;;;;2.78;2.58;;;;;;;35.84;nan;99306.50;5040253;28;20406;-69
2022/07/19 07:17:36;;;;;;;3.53;3.22;;;;;;;36.50;nan;99402.56;5040570;28;20040;-69
2022/07/19 07:20:03;;;;;;;4.70;2.95;;;;;;;36.90;nan;99371.00;5056653;28;20052;-68
2022/07/19 07:22:28;;;;;;;3.28;2.75;;;;;;;36.14;nan;99372.16;5056155;28;20052;-69
2022/07/19 07:24:53;;;;;;;2.83;2.63;;;;;;;35.79;nan;99358.38;5057488;28;20060;-69
2022/07/19 07:27:18;;;;;;;3.65;3.08;;;;;;;36.44;nan;99301.00;5058509;28;20513;-67
2022/07/19 07:29:42;;;;;;;2.78;2.58;;;;;;;37.61;nan;99301.69;5058385;28;20039;-68
2022/07/19 07:32:07;;;;;;;4.68;2.97;;;;;;;37.74;nan;99367.78;5057881;28;20104;-68
2022/07/19 07:34:32;;;;;;;3.17;2.67;;;;;;;37.03;nan;99365.59;5039587;28;20036;-70
2022/07/19 07:36:57;;;;;;;7.93;2.85;;;;;;;35.38;nan;99300.22;5058821;28;20051;-70
2022/07/19 07:39:21;;;;;;;2.33;2.20;;;;;;;33.40;nan;99304.34;5040049;28;20078;-69
2022/07/19 07:41:46;;;;;;;4.22;2.83;;;;;;;33.49;nan;99305.50;5036668;28;20048;-68
2022/07/19 07:44:11;;;;;;;5.63;2.80;;;;;;;35.07;nan;99307.72;5038171;28;20036;-67
2022/07/19 07:46:36;;;;;;;14.82;8.27;;;;;;;35.95;nan;99310.06;5022106;28;20054;-69
2022/07/19 07:49:01;;;;;;;3.70;3.40;;;;;;;36.65;nan;99294.19;5055407;28;20044;-69
2022/07/19 07:51:26;;;;;;;5.93;3.83;;;;;;;37.08;nan;99365.56;5054334;28;20486;-69
2022/07/19 07:53:51;;;;;;;3.35;3.05;;;;;;;38.14;nan;99307.25;5038150;28;20532;-69
2022/07/19 07:56:16;;;;;;;4.95;3.00;;;;;;;39.49;nan;99311.00;5059124;28;20048;-70
2022/07/19 07:58:41;;;;;;;3.33;3.13;;;;;;;40.96;nan;99374.16;5057700;28;20084;-69
2022/07/19 08:01:06;;;;;;;87.90;21.02;;;;;;;41.73;nan;99297.47;5055382;28;20081;-70
2022/07/19 08:03:30;;;;;;;5.88;3.97;;;;;;;41.27;nan;99307.91;5054710;28;20047;-70
2022/07/19 08:05:57;;;;;;;4.53;4.10;;;;;;;41.28;nan;99314.34;5055964;28;20090;-70
2022/07/19 08:08:26;;;;;;;47.22;28.10;;;;;;;41.92;nan;99298.84;5039266;28;20047;-70
2022/07/19 08:10:51;;;;;;;7.05;5.65;;;;;;;42.44;nan;99307.44;5058554;28;20135;-69
2022/07/19 08:13:15;;;;;;;4.45;4.05;;;;;;;41.59;nan;99300.38;5058203;28;20082;-70
2022/07/19 08:15:40;;;;;;;60.42;33.55;;;;;;;40.08;nan;99305.66;5056977;28;20067;-70
2022/07/19 08:18:05;;;;;;;8.90;7.25;;;;;;;39.07;nan;99297.22;5037722;28;20108;-68
2022/07/19 08:20:30;;;;;;;4.18;3.78;;;;;;;38.53;nan;99311.72;5036747;28;20127;-68
2022/07/19 08:22:55;;;;;;;3.78;3.53;;;;;;;37.92;nan;99304.16;5041743;28;20051;-70
2022/07/19 08:25:20;;;;;;;5.70;4.85;;;;;;;37.41;nan;99307.47;5060878;28;20048;-70
2022/07/19 08:27:45;;;;;;;3.40;3.20;;;;;;;37.21;nan;99313.22;5043386;28;20048;-70
2022/07/19 08:30:11;;;;;;;3.50;3.20;;;;;;;37.19;nan;99307.13;5043155;28;20051;-70
2022/07/19 08:32:37;;;;;;;17.10;11.55;;;;;;;38.46;nan;99312.91;5060117;28;20055;-72
2022/07/19 08:35:02;;;;;;;6.50;5.05;;;;;;;40.17;nan;99301.00;5059377;28;20043;-67
2022/07/19 08:37:27;;;;;;;6.28;4.72;;;;;;;40.91;nan;99301.56;5059017;28;20036;-70
2022/07/19 08:39:52;;;;;;;3.90;3.45;;;;;;;40.59;nan;99308.19;5060638;28;20501;-69
2022/07/19 08:42:20;;;;;;;5.85;4.18;;;;;;;39.90;nan;99308.25;5061428;28;20046;-68
2022/07/19 08:44:50;;;;;;;27.00;13.27;;;;;;;38.75;nan;99314.72;5043435;28;20051;-69
2022/07/19 08:47:17;;;;;;;6.45;4.97;;;;;;;37.43;nan;99288.53;5060099;28;20070;-69
2022/07/19 08:49:43;;;;;;;6.00;3.90;;;;;;;37.07;nan;99294.41;5041812;28;20044;-69
2022/07/19 08:52:08;;;;;;;5.18;4.00;;;;;;;37.98;nan;99303.78;5062260;28;20448;-69
2022/07/19 08:54:33;;;;;;;4.53;3.83;;;;;;;38.14;nan;99294.16;5062347;28;20527;-69
2022/07/19 08:59:43;;;;;;;3.50;3.20;;;;;;;35.14;nan;99293.56;5060435;28;20092;-70
2022/07/19 09:02:08;;;;;;;20.33;7.85;;;;;;;34.53;nan;99296.31;5041068;28;20143;-68
2022/07/19 09:04:32;;;;;;;6.93;3.75;;;;;;;34.43;nan;99290.72;5039748;28;20104;-68
2022/07/19 09:06:58;;;;;;;6.05;3.10;;;;;;;34.46;nan;99290.19;5059636;28;20062;-71
2022/07/19 09:09:36;;;;;;;4.65;2.60;;;;;;;34.55;nan;99280.22;5039439;28;20047;-69
2022/07/19 09:12:03;;;;;;;3.35;2.90;;;;;;;34.48;nan;99287.97;5054958;28;20048;-69
2022/07/19 09:14:34;;;;;;;6.32;2.88;;;;;;;35.94;nan;99278.72;5036889;28;20661;-68
2022/07/19 09:17:11;;;;;;;6.93;2.67;;;;;;;37.51;nan;99289.84;5037014;28;20044;-69
2022/07/19 09:19:38;;;;;;;3.03;2.83;;;;;;;37.41;nan;99280.47;5018624;28;20051;-68
2022/07/19 09:22:06;;;;;;;4.78;3.53;;;;;;;36.71;nan;99284.69;5036637;28;20037;-68
2022/07/19 09:24:36;;;;;;;43.53;6.78;;;;;;;35.79;nan;99280.72;5036348;28;20036;-68
2022/07/19 09:27:06;;;;;;;3.67;2.90;;;;;;;34.66;nan;99281.91;5036579;28;20367;-68
2022/07/19 09:29:33;;;;;;;4.65;2.97;;;;;;;33.18;nan;99285.91;5036879;28;20133;-71
2022/07/19 09:32:05;;;;;;;3.22;2.90;;;;;;;32.12;nan;99271.09;5018328;28;20399;-69
2022/07/19 09:34:36;;;;;;;2.83;2.58;;;;;;;30.97;nan;99274.69;5036624;28;20040;-71
2022/07/19 09:37:13;;;;;;;2.90;2.63;;;;;;;30.13;nan;99273.72;5036429;28;20071;-69
2022/07/19 09:39:47;;;;;;;2.83;2.10;;;;;;;29.00;nan;99285.19;5036493;28;20581;-70
2022/07/19 09:42:19;;;;;;;5.10;3.53;;;;;;;28.36;nan;99278.56;5037819;28;20044;-69
2022/07/19 09:44:46;;;;;;;2.22;2.03;;;;;;;27.61;nan;99276.16;5056724;28;20047;-68
2022/07/19 09:47:11;;;;;;;3.58;1.65;;;;;;;27.01;nan;99275.91;5056104;28;20467;-70
2022/07/19 09:49:36;;;;;;;4.70;1.88;;;;;;;26.49;nan;99271.69;5037698;28;20048;-72
2022/07/19 09:52:01;;;;;;;2.25;1.98;;;;;;;26.06;nan;99270.66;5056079;28;20055;-69
2022/07/19 09:54:29;;;;;;;3.40;1.63;;;;;;;25.73;nan;99273.56;5055970;28;20044;-70
2022/07/19 09:56:56;;;;;;;3.22;2.10;;;;;;;25.52;nan;99267.28;5055461;28;20100;-70
2022/07/19 09:59:24;;;;;;;1.98;1.77;;;;;;;25.56;nan;99271.25;5055921;28;20040;-70
2022/07/19 10:01:53;;;;;;;3.00;2.67;;;;;;;25.76;nan;99268.47;5056752;28;20043;-69
2022/07/19 10:04:20;;;;;;;4.65;2.40;;;;;;;25.88;nan;99269.47;5037442;28;20532;-69
2022/07/19 10:06:47;;;;;;;3.42;2.13;;;;;;;25.86;nan;99262.53;5055831;28;20047;-68
2022/07/19 10:09:14;;;;;;;3.00;2.05;;;;;;;25.65;nan;99267.25;5037836;28;20132;-69
2022/07/19 10:11:39;;;;;;;2.72;1.98;;;;;;;25.44;nan;99270.25;5037344;28;20174;-70
2022/07/19 10:14:05;;;;;;;1.67;1.58;;;;;;;25.13;nan;99267.38;5017509;28;20044;-70
2022/07/19 10:17:15;;;;;;;2.65;2.00;;;;;;;25.00;nan;99259.22;5035638;28;20036;-68
2022/07/19 10:19:44;;;;;;;2.65;1.95;;;;;;;24.44;nan;99268.63;5018033;28;20059;-70
2022/07/19 10:22:11;;;;;;;2.88;2.28;;;;;;;24.09;nan;99261.59;5035445;28;20041;-70
2022/07/19 10:24:49;;;;;;;7.72;2.47;;;;;;;23.91;nan;99258.63;5034014;28;20415;-69
2022/07/19 10:27:16;;;;;;;4.82;2.72;;;;;;;23.56;nan;99266.84;5034803;28;20522;-68
2022/07/19 10:29:41;;;;;;;2.75;2.03;;;;;;;23.53;nan;99257.22;5035229;28;20041;-71
2022/07/19 10:32:09;;;;;;;3.80;2.00;;;;;;;24.47;nan;99270.09;5035529;28;20044;-70
2022/07/19 10:34:33;;;;;;;2.55;2.30;;;;;;;26.86;nan;99269.91;5035027;28;20044;-69
2022/07/19 10:36:58;;;;;;;3.88;2.10;;;;;;;28.30;nan;99261.16;5033990;28;20048;-68
2022/07/19 10:39:30;;;;;;;4.47;2.22;;;;;;;28.56;nan;99264.56;5017069;28;20403;-71
2022/07/19 10:42:18;;;;;;;4.60;2.20;;;;;;;28.36;nan;99256.63;5034891;28;20082;-70
2022/07/19 10:44:59;;;;;;;2.78;2.20;;;;;;;27.60;nan;99257.22;5033809;28;20048;-69
2022/07/19 10:47:37;;;;;;;3.40;2.47;;;;;;;27.00;nan;99256.97;5034607;28;20070;-69
2022/07/19 10:50:04;;;;;;;2.08;1.88;;;;;;;26.68;nan;99259.75;5034870;28;20097;-69
2022/07/19 10:52:29;;;;;;;2.00;1.80;;;;;;;26.76;nan;99255.88;5035318;28;20542;-69
2022/07/19 10:55:16;;;;;;;2.00;1.58;;;;;;;27.08;nan;99260.28;5034373;28;20044;-69
2022/07/19 10:57:43;;;;;;;1.75;1.60;;;;;;;26.66;nan;99264.59;5034555;28;20457;-69
2022/07/19 11:00:28;;;;;;;3.65;2.03;;;;;;;26.38;nan;99253.25;5033261;28;20036;-70
2022/07/19 11:03:22;;;;;;;2.53;1.65;;;;;;;25.82;nan;99242.22;5017003;28;20040;-71
2022/07/19 11:05:55;;;;;;;1.80;1.65;;;;;;;25.15;nan;99241.56;5034423;28;20525;-67
2022/07/19 11:08:40;;;;;;;3.97;1.93;;;;;;;24.74;nan;99241.78;5016787;28;20052;-68
2022/07/19 11:11:09;;;;;;;6.20;2.03;;;;;;;24.18;nan;99241.28;5034802;28;20464;-68
2022/07/19 11:13:35;;;;;;;2.28;1.95;;;;;;;23.91;nan;99234.97;5047761;28;20060;-69
2022/07/19 11:16:02;;;;;;;13.25;3.38;;;;;;;23.74;nan;99230.91;5036582;28;20123;-69
2022/07/19 11:18:27;;;;;;;2.63;2.08;;;;;;;23.61;nan;99223.53;5036346;28;20044;-68
2022/07/19 11:20:56;;;;;;;2.58;1.60;;;;;;;23.49;nan;99227.84;5036175;28;20048;-71
2022/07/19 11:23:20;;;;;;;1.40;1.25;;;;;;;23.36;nan;99225.94;5054332;28;20036;-68
2022/07/19 11:25:46;;;;;;;2.00;1.60;;;;;;;23.27;nan;99229.00;5054607;28;20397;-70
2022/07/19 11:28:24;;;;;;;2.22;1.40;;;;;;;23.31;nan;99231.13;5054258;28;20149;-67
2022/07/19 11:30:50;;;;;;;11.30;2.92;;;;;;;23.10;nan;99228.50;5054182;28;20052;-66
2022/07/19 11:33:19;;;;;;;6.05;1.80;;;;;;;23.08;nan;99227.84;5054862;28;20036;-68
2022/07/19 11:35:55;;;;;;;3.92;1.60;;;;;;;23.05;nan;99230.94;5054407;28;20047;-67
2022/07/19 11:38:20;;;;;;;2.92;1.35;;;;;;;22.86;nan;99223.50;5054739;28;20866;-67
2022/07/19 11:40:45;;;;;;;5.68;1.98;;;;;;;22.79;nan;99227.03;5053926;28;20502;-66
2022/07/19 11:43:10;;;;;;;1.67;1.38;;;;;;;22.68;nan;99219.41;5035865;28;20406;-65
2022/07/19 11:45:42;;;;;;;5.05;1.90;;;;;;;22.62;nan;99222.03;5054323;28;20054;-66
2022/07/19 11:48:07;;;;;;;4.53;1.50;;;;;;;22.45;nan;99224.22;5054791;28;20051;-64